createdAt,value
2018-10-19T00:02:00.609Z,58.50
2018-10-19T00:04:29.863Z,57.43
2018-10-19T00:06:59.202Z,56.57
2018-10-19T00:09:28.443Z,60.97
2018-10-19T00:11:57.700Z,60.47
2018-10-19T00:14:26.882Z,59.37
2018-10-19T00:16:56.238Z,61.50
2018-10-19T00:19:25.450Z,62.40
2018-10-19T00:21:54.662Z,60.47
2018-10-19T00:24:23.893Z,61.97
2018-10-19T00:26:53.190Z,62.50
2018-10-19T00:29:22.440Z,61.47
2018-10-19T00:31:51.663Z,59.90
2018-10-19T00:34:21.128Z,63.10
2018-10-19T00:36:50.400Z,66.17
2018-10-19T00:39:19.623Z,65.30
2018-10-19T00:41:48.861Z,62.13
2018-10-19T00:44:18.082Z,60.03
2018-10-19T00:46:47.355Z,60.37
2018-10-19T00:49:16.484Z,64.03
2018-10-19T00:51:45.742Z,59.70
2018-10-19T00:54:14.962Z,58.63
2018-10-19T00:56:47.042Z,60.03
2018-10-19T00:59:16.183Z,57.20
2018-10-19T01:01:45.369Z,58.10
2018-10-19T01:04:14.525Z,55.80
2018-10-19T01:06:44.143Z,54.30
2018-10-19T01:09:13.453Z,58.03
2018-10-19T01:11:42.762Z,62.87
2018-10-19T01:14:12.043Z,60.00
2018-10-19T01:16:41.214Z,60.30
2018-10-19T01:19:10.462Z,62.53
2018-10-19T01:21:39.622Z,61.47
2018-10-19T01:24:08.882Z,61.60
2018-10-19T01:26:38.142Z,64.67
2018-10-19T01:29:07.387Z,60.90
2018-10-19T01:31:36.694Z,60.63
2018-10-19T01:34:05.884Z,59.27
2018-10-19T01:36:40.963Z,58.70
2018-10-19T01:39:11.264Z,57.67
2018-10-19T01:41:41.762Z,58.47
2018-10-19T01:44:11.782Z,59.30
2018-10-19T01:46:47.102Z,59.67
2018-10-19T01:49:17.702Z,62.13
2018-10-19T01:51:47.302Z,61.13
2018-10-19T01:54:16.544Z,60.87
2018-10-19T01:56:46.354Z,58.63
2018-10-19T01:59:15.847Z,61.20
2018-10-19T02:01:45.007Z,59.33
2018-10-19T02:04:20.903Z,57.93
2018-10-19T02:06:50.102Z,58.70
2018-10-19T02:09:19.225Z,57.43
2018-10-19T02:11:51.397Z,58.87
2018-10-19T02:14:20.490Z,58.27
2018-10-19T02:16:50.019Z,59.23
2018-10-19T02:19:19.142Z,59.33
2018-10-19T02:21:48.401Z,60.37
2018-10-19T02:24:17.662Z,58.50
2018-10-19T02:26:46.825Z,58.30
2018-10-19T02:29:15.975Z,58.73
2018-10-19T02:31:45.102Z,58.70
2018-10-19T02:34:14.282Z,60.67
2018-10-19T02:36:43.654Z,63.23
2018-10-19T02:39:13.189Z,62.93
2018-10-19T02:41:42.849Z,65.20
2018-10-19T02:44:12.203Z,63.30
2018-10-19T02:46:41.642Z,65.13
2018-10-19T02:49:11.329Z,58.77
2018-10-19T02:51:40.562Z,56.30
2018-10-19T02:54:09.722Z,49.13
2018-10-19T02:56:39.267Z,52.97
2018-10-19T02:59:08.622Z,55.63
2018-10-19T03:01:38.146Z,54.70
2018-10-19T03:04:07.843Z,56.27
2018-10-19T03:06:37.302Z,58.00
2018-10-19T03:09:10.400Z,54.47
2018-10-19T03:11:40.228Z,54.90
2018-10-19T03:14:09.825Z,56.43
2018-10-19T03:16:39.651Z,59.50
2018-10-19T03:19:09.209Z,57.70
2018-10-19T03:21:38.423Z,56.63
2018-10-19T03:24:07.783Z,58.77
2018-10-19T03:26:36.962Z,60.73
2018-10-19T03:29:06.491Z,58.37
2018-10-19T03:31:35.599Z,57.70
2018-10-19T03:34:05.422Z,64.23
2018-10-19T03:36:34.558Z,63.63
2018-10-19T03:39:05.969Z,60.87
2018-10-19T03:41:35.075Z,60.97
2018-10-19T03:44:04.402Z,59.90
2018-10-19T03:46:34.119Z,55.80
2018-10-19T03:49:03.306Z,56.10
2018-10-19T03:51:32.562Z,54.73
2018-10-19T03:54:01.762Z,56.77
2018-10-19T03:56:31.002Z,58.27
2018-10-19T03:59:00.282Z,58.87
2018-10-19T04:01:29.462Z,51.93
2018-10-19T04:03:58.764Z,53.97
2018-10-19T04:06:27.923Z,52.60
2018-10-19T04:08:57.111Z,50.57
2018-10-19T04:11:26.302Z,53.33
2018-10-19T04:13:55.562Z,49.50
2018-10-19T04:16:24.770Z,49.97
2018-10-19T04:18:54.023Z,53.57
2018-10-19T04:21:23.206Z,54.53
2018-10-19T04:23:52.341Z,53.97
2018-10-19T04:26:21.574Z,54.70
2018-10-19T04:28:50.894Z,53.77
2018-10-19T04:31:20.283Z,56.23
2018-10-19T04:33:49.503Z,55.60
2018-10-19T04:36:18.723Z,56.43
2018-10-19T04:38:48.044Z,52.30
2018-10-19T04:41:17.356Z,57.10
2018-10-19T04:43:46.583Z,58.87
2018-10-19T04:46:15.723Z,56.83
2018-10-19T04:48:45.042Z,55.17
2018-10-19T04:51:14.254Z,55.47
2018-10-19T04:53:43.544Z,52.70
2018-10-19T04:56:12.782Z,51.73
2018-10-19T04:58:41.942Z,51.00
2018-10-19T05:01:11.282Z,53.87
2018-10-19T05:03:40.363Z,50.50
2018-10-19T05:06:09.622Z,50.43
2018-10-19T05:08:38.883Z,50.00
2018-10-19T05:11:08.247Z,53.13
2018-10-19T05:13:37.423Z,50.33
2018-10-19T05:16:06.563Z,50.23
2018-10-19T05:18:35.906Z,55.40
2018-10-19T05:21:05.266Z,58.47
2018-10-19T05:23:34.522Z,52.13
2018-10-19T05:26:03.854Z,56.23
2018-10-19T05:28:33.163Z,59.10
2018-10-19T05:31:02.444Z,54.13
2018-10-19T05:33:31.722Z,52.37
2018-10-19T05:36:01.243Z,54.50
2018-10-19T05:38:30.331Z,54.70
2018-10-19T05:40:59.663Z,57.23
2018-10-19T05:43:29.304Z,56.33
2018-10-19T05:45:58.645Z,57.07
2018-10-19T05:48:27.903Z,62.67
2018-10-19T05:50:57.043Z,64.33
2018-10-19T05:53:26.282Z,64.73
2018-10-19T05:55:55.389Z,59.43
2018-10-19T05:58:24.582Z,55.13
2018-10-19T06:00:53.825Z,59.93
2018-10-19T06:03:23.022Z,63.83
2018-10-19T06:05:52.527Z,65.60
2018-10-19T06:08:21.622Z,68.37
2018-10-19T06:10:50.982Z,62.97
2018-10-19T06:13:20.138Z,64.43
2018-10-19T06:15:49.423Z,60.40
2018-10-19T06:18:18.662Z,57.40
2018-10-19T06:20:47.822Z,58.77
2018-10-19T06:23:17.030Z,58.27
2018-10-19T06:25:46.232Z,56.57
2018-10-19T06:28:15.503Z,57.43
2018-10-19T06:30:44.715Z,55.63
2018-10-19T06:33:14.042Z,55.40
2018-10-19T06:35:43.262Z,54.57
2018-10-19T06:38:12.608Z,54.53
2018-10-19T06:40:41.926Z,53.07
2018-10-19T06:43:11.422Z,53.23
2018-10-19T06:45:40.642Z,53.90
2018-10-19T06:48:10.204Z,51.47
2018-10-19T06:50:39.486Z,52.50
2018-10-19T06:53:08.827Z,52.40
2018-10-19T06:55:38.002Z,51.07
2018-10-19T06:58:07.263Z,50.83
2018-10-19T07:00:36.662Z,50.57
2018-10-19T07:03:06.660Z,51.10
2018-10-19T07:05:35.867Z,50.00
2018-10-19T07:08:11.723Z,51.70
2018-10-19T07:10:41.879Z,51.47
2018-10-19T07:13:11.122Z,46.83
2018-10-19T07:15:40.404Z,46.57
2018-10-19T07:18:09.999Z,46.70
2018-10-19T07:20:39.178Z,45.23
2018-10-19T07:23:08.826Z,44.50
2018-10-19T07:25:37.978Z,43.80
2018-10-19T07:28:07.910Z,45.20
2018-10-19T07:30:43.781Z,46.03
2018-10-19T07:33:13.016Z,44.87
2018-10-19T07:35:42.339Z,42.60
2018-10-19T07:38:18.713Z,41.67
2018-10-19T07:40:47.960Z,42.70
2018-10-19T07:43:17.237Z,42.60
2018-10-19T07:45:46.578Z,41.67
2018-10-19T07:48:15.779Z,40.47
2018-10-19T07:50:45.439Z,39.67
2018-10-19T07:53:14.671Z,40.17
2018-10-19T07:55:43.893Z,41.40
2018-10-19T07:58:13.519Z,39.73
2018-10-19T08:00:42.878Z,39.80
2018-10-19T08:03:12.186Z,40.80
2018-10-19T08:05:41.599Z,41.30
2018-10-19T08:08:11.093Z,40.37
2018-10-19T08:10:40.643Z,39.30
2018-10-19T08:13:09.960Z,39.60
2018-10-19T08:15:39.168Z,39.33
2018-10-19T08:18:08.438Z,38.93
2018-10-19T08:20:37.658Z,39.00
2018-10-19T08:23:06.913Z,37.07
2018-10-19T08:25:36.178Z,38.90
2018-10-19T08:28:05.478Z,38.57
2018-10-19T08:30:34.741Z,38.50
2018-10-19T08:33:03.998Z,39.00
2018-10-19T08:35:33.339Z,40.30
2018-10-19T08:38:02.659Z,42.10
2018-10-19T08:40:38.923Z,39.30
2018-10-19T08:43:08.121Z,39.80
2018-10-19T08:45:37.358Z,41.20
2018-10-19T08:48:07.078Z,42.83
2018-10-19T08:50:36.272Z,42.40
2018-10-19T08:53:05.574Z,43.33
2018-10-19T08:55:34.879Z,44.90
2018-10-19T08:58:04.132Z,45.23
2018-10-19T09:00:33.318Z,47.43
2018-10-19T09:03:02.715Z,47.60
2018-10-19T09:05:31.949Z,49.63
2018-10-19T09:08:01.218Z,50.93
2018-10-19T09:10:30.677Z,51.13
2018-10-19T09:12:59.959Z,49.37
2018-10-19T09:15:29.175Z,50.07
2018-10-19T09:17:58.259Z,51.53
2018-10-19T09:20:27.578Z,50.83
2018-10-19T09:22:57.241Z,51.07
2018-10-19T09:25:26.485Z,50.40
2018-10-19T09:27:55.602Z,48.67
2018-10-19T09:30:24.958Z,49.83
2018-10-19T09:32:54.295Z,50.60
2018-10-19T09:35:23.990Z,49.23
2018-10-19T09:37:53.275Z,50.20
2018-10-19T09:40:22.600Z,49.43
2018-10-19T09:42:51.761Z,50.03
2018-10-19T09:45:21.016Z,49.10
2018-10-19T09:47:50.236Z,47.57
2018-10-19T09:50:19.796Z,49.37
2018-10-19T09:52:49.482Z,45.30
2018-10-19T09:55:18.847Z,46.97
2018-10-19T09:57:48.227Z,46.47
2018-10-19T10:00:22.816Z,48.37
2018-10-19T10:02:52.078Z,48.93
2018-10-19T10:05:21.335Z,48.43
2018-10-19T10:07:50.675Z,46.80
2018-10-19T10:10:19.911Z,47.73
2018-10-19T10:12:49.198Z,48.53
2018-10-19T10:15:18.708Z,47.80
2018-10-19T10:17:47.966Z,48.23
2018-10-19T10:20:17.213Z,52.33
2018-10-19T10:22:46.526Z,51.07
2018-10-19T10:25:15.907Z,53.73
2018-10-19T10:27:45.126Z,51.77
2018-10-19T10:30:14.494Z,53.03
2018-10-19T10:32:43.768Z,54.47
2018-10-19T10:35:13.058Z,55.57
2018-10-19T10:37:42.269Z,53.60
2018-10-19T10:40:11.537Z,53.43
2018-10-19T10:42:40.766Z,53.97
2018-10-19T10:45:10.107Z,53.53
2018-10-19T10:47:39.396Z,51.03
2018-10-19T10:50:08.870Z,52.83
2018-10-19T10:52:38.070Z,50.93
2018-10-19T10:55:07.369Z,52.77
2018-10-19T10:57:36.687Z,50.13
2018-10-19T11:00:07.130Z,49.97
2018-10-19T11:02:36.446Z,49.87
2018-10-19T11:05:06.285Z,48.27
2018-10-19T11:07:35.635Z,49.80
2018-10-19T11:10:05.352Z,49.40
2018-10-19T11:12:34.583Z,44.13
2018-10-19T11:15:04.764Z,43.10
2018-10-19T11:17:33.987Z,45.40
2018-10-19T11:20:04.166Z,42.30
2018-10-19T11:22:33.382Z,43.40
2018-10-19T11:25:02.683Z,40.93
2018-10-19T11:27:31.982Z,41.33
2018-10-19T11:30:01.189Z,40.97
2018-10-19T11:32:30.509Z,39.90
2018-10-19T11:34:59.829Z,43.53
2018-10-19T11:37:29.084Z,38.63
2018-10-19T11:40:22.852Z,38.37
2018-10-19T11:42:52.899Z,38.70
2018-10-19T11:45:22.870Z,38.47
2018-10-19T11:47:52.533Z,36.63
2018-10-19T11:50:21.950Z,35.53
2018-10-19T11:52:51.449Z,35.97
2018-10-19T11:55:20.710Z,36.63
2018-10-19T11:57:50.471Z,36.93
2018-10-19T12:00:19.989Z,36.03
2018-10-19T12:02:49.310Z,36.23
2018-10-19T12:05:18.986Z,38.17
2018-10-19T12:07:48.489Z,36.37
2018-10-19T12:10:17.764Z,36.00
2018-10-19T12:12:47.109Z,37.73
2018-10-19T12:15:17.121Z,36.63
2018-10-19T12:17:46.529Z,37.17
2018-10-19T12:20:17.031Z,37.53
2018-10-19T12:22:46.369Z,36.97
2018-10-19T12:25:16.550Z,37.23
2018-10-19T12:27:45.590Z,38.50
2018-10-19T12:30:15.130Z,35.63
2018-10-19T12:32:44.329Z,35.13
2018-10-19T12:35:14.374Z,34.70
2018-10-19T12:37:43.590Z,34.63
2018-10-19T12:40:12.801Z,31.40
2018-10-19T12:42:42.029Z,26.97
2018-10-19T12:46:29.229Z,24.97
2018-10-19T12:48:58.580Z,27.43
2018-10-19T12:51:27.909Z,28.97
2018-10-19T12:53:57.169Z,30.23
2018-10-19T12:56:26.430Z,28.80
2018-10-19T12:58:56.028Z,29.30
2018-10-19T13:01:26.549Z,27.67
2018-10-19T13:03:55.988Z,27.27
2018-10-19T13:06:25.250Z,27.87
2018-10-19T13:08:54.573Z,27.20
2018-10-19T13:11:24.110Z,28.60
2018-10-19T13:13:53.429Z,27.30
2018-10-19T13:16:22.693Z,28.17
2018-10-19T13:18:52.259Z,27.43
2018-10-19T13:21:21.480Z,29.10
2018-10-19T13:23:50.988Z,29.30
2018-10-19T13:26:20.053Z,29.57
2018-10-19T13:28:49.369Z,28.47
2018-10-19T13:31:18.462Z,28.47
2018-10-19T13:33:47.655Z,30.57
2018-10-19T13:36:17.085Z,29.67
2018-10-19T13:38:46.331Z,30.10
2018-10-19T13:41:15.622Z,31.10
2018-10-19T13:43:45.280Z,29.80
2018-10-19T13:46:14.599Z,30.67
2018-10-19T13:48:43.964Z,31.27
2018-10-19T13:51:13.329Z,31.27
2018-10-19T13:53:42.401Z,31.73
2018-10-19T13:56:11.735Z,32.13
2018-10-19T13:58:40.938Z,33.80
2018-10-19T14:01:10.650Z,33.90
2018-10-19T14:03:39.914Z,32.43
2018-10-19T14:06:10.774Z,33.83
2018-10-19T14:08:40.058Z,34.00
2018-10-19T14:11:09.229Z,35.77
2018-10-19T14:13:38.684Z,36.13
2018-10-19T14:16:08.293Z,35.60
2018-10-19T14:18:37.440Z,33.63
2018-10-19T14:21:07.039Z,35.47
2018-10-19T14:23:36.245Z,35.10
2018-10-19T14:26:05.607Z,36.80
2018-10-19T14:28:34.829Z,37.57
2018-10-19T14:31:11.093Z,37.97
2018-10-19T14:33:40.684Z,39.20
2018-10-19T14:36:09.945Z,37.13
2018-10-19T14:38:39.146Z,38.33
2018-10-19T14:41:08.483Z,37.27
2018-10-19T14:43:37.844Z,38.10
2018-10-19T14:46:07.164Z,37.57
2018-10-19T14:48:36.433Z,38.03
2018-10-19T14:51:06.331Z,39.20
2018-10-19T14:53:35.649Z,39.40
2018-10-19T14:56:04.824Z,40.10
2018-10-19T14:58:34.204Z,38.67
2018-10-19T15:01:03.433Z,39.23
2018-10-19T15:03:32.785Z,40.40
2018-10-19T15:06:02.024Z,41.10
2018-10-19T15:08:31.292Z,38.97
2018-10-19T15:11:00.683Z,40.73
2018-10-19T15:13:29.646Z,39.97
2018-10-19T15:15:58.944Z,41.17
2018-10-19T15:18:28.233Z,39.33
2018-10-19T15:20:57.624Z,40.53
2018-10-19T15:23:26.965Z,41.83
2018-10-19T15:25:56.223Z,39.97
2018-10-19T15:28:25.568Z,39.73
2018-10-19T15:30:54.766Z,41.47
2018-10-19T15:33:23.740Z,43.40
2018-10-19T15:35:52.981Z,42.47
2018-10-19T15:38:22.202Z,41.27
2018-10-19T15:40:51.581Z,42.13
2018-10-19T15:43:20.829Z,42.43
2018-10-19T15:45:50.368Z,42.67
2018-10-19T15:48:19.723Z,43.60
2018-10-19T15:50:48.996Z,42.97
2018-10-19T15:53:18.636Z,45.40
2018-10-19T15:55:47.878Z,44.73
2018-10-19T15:58:17.137Z,42.77
2018-10-19T16:00:46.658Z,44.10
2018-10-19T16:03:16.159Z,43.60
2018-10-19T16:05:45.281Z,43.40
2018-10-19T16:08:14.583Z,45.40
2018-10-19T16:10:43.824Z,45.03
2018-10-19T16:13:13.107Z,46.47
2018-10-19T16:15:42.425Z,45.60
2018-10-19T16:18:12.182Z,47.67
2018-10-19T16:20:41.456Z,47.10
2018-10-19T16:23:10.698Z,46.90
2018-10-19T16:25:40.037Z,47.07
2018-10-19T16:28:09.271Z,48.03
2018-10-19T16:30:38.559Z,48.53
2018-10-19T16:33:07.909Z,50.33
2018-10-19T16:35:37.099Z,47.63
2018-10-19T16:38:06.319Z,47.97
2018-10-19T16:40:35.479Z,49.87
2018-10-19T16:43:05.180Z,50.17
2018-10-19T16:45:34.439Z,50.70
2018-10-19T16:48:03.823Z,49.07
2018-10-19T16:50:33.117Z,50.07
2018-10-19T16:53:02.450Z,49.97
2018-10-19T16:55:31.860Z,51.33
2018-10-19T16:58:01.167Z,51.53
2018-10-19T17:00:30.519Z,50.77
2018-10-19T17:02:59.709Z,50.83
2018-10-19T17:05:28.980Z,51.47
2018-10-19T17:07:58.199Z,50.87
2018-10-19T17:10:27.523Z,53.63
2018-10-19T17:12:56.886Z,51.90
2018-10-19T17:15:26.026Z,52.67
2018-10-19T17:17:55.227Z,53.83
2018-10-19T17:20:24.529Z,51.40
2018-10-19T17:22:53.845Z,53.33
2018-10-19T17:25:23.215Z,54.17
2018-10-19T17:27:52.546Z,52.43
2018-10-19T17:30:21.977Z,52.00
2018-10-19T17:32:51.033Z,55.03
2018-10-19T17:35:20.346Z,52.77
2018-10-19T17:37:49.537Z,54.73
2018-10-19T17:40:18.835Z,61.00
2018-10-19T17:42:48.227Z,101.17
2018-10-19T17:45:17.623Z,55.27
2018-10-19T17:47:46.996Z,52.97
2018-10-19T17:50:16.283Z,53.53
2018-10-19T17:52:45.583Z,54.43
2018-10-19T17:55:14.863Z,55.13
2018-10-19T17:57:44.123Z,90.40
2018-10-19T18:00:13.775Z,54.40
2018-10-19T18:02:42.984Z,57.50
2018-10-19T18:05:12.330Z,54.33
2018-10-19T18:07:41.569Z,53.67
2018-10-19T18:10:10.903Z,53.10
2018-10-19T18:12:40.123Z,55.70
2018-10-19T18:15:09.504Z,54.53
2018-10-19T18:17:39.104Z,53.57
2018-10-19T18:20:08.463Z,52.13
2018-10-19T18:22:37.905Z,52.37
2018-10-19T18:25:07.727Z,52.90
2018-10-19T18:27:37.064Z,52.87
2018-10-19T18:30:07.462Z,52.03
2018-10-19T18:32:37.683Z,51.90
2018-10-19T18:35:09.284Z,52.00
2018-10-19T18:37:38.642Z,53.93
2018-10-19T18:40:10.502Z,55.10
2018-10-19T18:42:39.783Z,53.10
2018-10-19T18:45:09.685Z,53.17
2018-10-19T18:47:39.221Z,54.87
2018-10-19T18:50:09.243Z,51.90
2018-10-19T18:52:38.877Z,52.70
2018-10-19T18:55:08.320Z,54.43
2018-10-19T18:57:37.642Z,55.03
2018-10-19T19:00:09.902Z,52.77
2018-10-19T19:02:39.517Z,54.30
2018-10-19T19:05:08.964Z,54.67
2018-10-19T19:07:38.319Z,52.97
2018-10-19T19:10:11.821Z,56.50
2018-10-19T19:12:41.103Z,55.00
2018-10-19T19:15:11.004Z,54.30
2018-10-19T19:17:41.381Z,54.73
2018-10-19T19:20:29.463Z,57.07
2018-10-19T19:22:58.746Z,54.17
2018-10-19T19:25:33.862Z,56.70
2018-10-19T19:28:03.262Z,57.13
2018-10-19T19:30:32.523Z,55.93
2018-10-19T19:33:07.303Z,56.00
2018-10-19T19:35:36.577Z,56.23
2018-10-19T19:38:06.214Z,55.83
2018-10-19T19:40:41.442Z,58.57
2018-10-19T19:43:10.822Z,57.57
2018-10-19T19:45:40.142Z,59.50
2018-10-19T19:48:14.977Z,57.10
2018-10-19T19:50:44.287Z,59.93
2018-10-19T19:53:13.577Z,58.10
2018-10-19T19:55:42.963Z,58.53
2018-10-19T19:58:12.309Z,59.77
2018-10-19T20:00:41.882Z,59.17
2018-10-19T20:03:11.242Z,60.27
2018-10-19T20:05:40.539Z,59.57
2018-10-19T20:08:09.852Z,60.90
2018-10-19T20:10:39.118Z,61.27
2018-10-19T20:13:08.437Z,61.80
2018-10-19T20:15:37.703Z,62.97
2018-10-19T20:18:07.841Z,63.97
2018-10-19T20:20:37.099Z,62.27
2018-10-19T20:23:06.879Z,58.37
2018-10-19T20:25:36.170Z,61.93
2018-10-19T20:28:05.943Z,63.67
2018-10-19T20:30:35.243Z,61.10
2018-10-19T20:33:04.623Z,62.63
2018-10-19T20:35:33.963Z,61.80
2018-10-19T20:38:03.343Z,61.50
2018-10-19T20:40:32.662Z,58.43
2018-10-19T20:43:02.043Z,57.20
2018-10-19T20:45:31.443Z,62.13
2018-10-19T20:48:00.703Z,59.33
2018-10-19T20:50:30.088Z,63.97
2018-10-19T20:52:59.520Z,64.10
2018-10-19T20:55:28.936Z,59.37
2018-10-19T20:57:58.223Z,62.03
2018-10-19T21:00:27.523Z,60.47
2018-10-19T21:02:56.943Z,67.20
2018-10-19T21:05:26.198Z,61.20
2018-10-19T21:07:55.535Z,60.93
2018-10-19T21:10:24.847Z,65.33
2018-10-19T21:12:54.399Z,66.30
2018-10-19T21:15:23.718Z,67.73
2018-10-19T21:17:52.977Z,71.40
2018-10-19T21:20:22.298Z,69.73
2018-10-19T21:22:51.538Z,69.70
2018-10-19T21:25:20.978Z,68.43
2018-10-19T21:27:50.200Z,68.37
2018-10-19T21:30:19.543Z,72.90
2018-10-19T21:32:48.873Z,69.93
2018-10-19T21:35:18.138Z,74.60
2018-10-19T21:37:47.438Z,79.80
2018-10-19T21:40:16.570Z,73.53
2018-10-19T21:42:45.920Z,82.83
2018-10-19T21:45:15.154Z,71.53
2018-10-19T21:47:44.538Z,67.30
2018-10-19T21:50:13.935Z,75.33
2018-10-19T21:52:43.280Z,79.80
2018-10-19T21:55:12.642Z,78.63
2018-10-19T21:57:41.983Z,76.17
2018-10-19T22:00:11.498Z,83.43
2018-10-19T22:02:40.799Z,85.17
2018-10-19T22:05:10.409Z,82.20
2018-10-19T22:07:39.811Z,71.73
2018-10-19T22:10:12.384Z,66.73
2018-10-19T22:12:41.678Z,68.90
2018-10-19T22:15:11.200Z,73.93
2018-10-19T22:17:40.513Z,76.07
2018-10-19T22:20:10.046Z,74.70
2018-10-19T22:22:39.500Z,75.80
2018-10-19T22:25:08.822Z,71.47
2018-10-19T22:27:38.166Z,60.80
2018-10-19T22:30:08.378Z,66.17
2018-10-19T22:32:38.118Z,57.57
2018-10-19T22:35:07.559Z,57.63
2018-10-19T22:37:36.959Z,60.37
2018-10-19T22:40:06.660Z,57.80
2018-10-19T22:42:35.978Z,60.23
2018-10-19T22:45:05.518Z,60.23
2018-10-19T22:47:34.882Z,60.97
2018-10-19T22:50:04.418Z,64.07
2018-10-19T22:52:33.638Z,63.30
2018-10-19T22:55:03.324Z,64.10
2018-10-19T22:57:32.702Z,63.50
2018-10-19T23:00:02.278Z,66.90
2018-10-19T23:02:31.633Z,70.73
2018-10-19T23:05:01.104Z,67.50
2018-10-19T23:07:30.401Z,74.90
2018-10-19T23:09:59.839Z,74.03
2018-10-19T23:12:29.237Z,74.63
2018-10-19T23:14:58.518Z,74.83
2018-10-19T23:17:27.970Z,74.50
2018-10-19T23:19:57.219Z,77.23
2018-10-19T23:22:26.486Z,79.77
2018-10-19T23:25:02.591Z,79.23
2018-10-19T23:27:31.838Z,76.17
2018-10-19T23:30:01.200Z,79.33
2018-10-19T23:32:30.678Z,71.83
2018-10-19T23:35:00.046Z,77.27
2018-10-19T23:37:29.475Z,79.80
2018-10-19T23:39:58.660Z,76.43
2018-10-19T23:42:27.970Z,75.67
2018-10-19T23:44:57.370Z,78.77
2018-10-19T23:47:26.679Z,75.83
2018-10-19T23:49:56.010Z,81.90
2018-10-19T23:52:25.358Z,75.47
2018-10-19T23:54:54.731Z,75.60
2018-10-19T23:57:23.898Z,79.43
2018-10-19T23:59:53.231Z,77.20
